Time;durP1;ratioP1;P1;durP2;ratioP2;P2;SDS_P1;SDS_P2;PMS_P1;PMS_P2;Temp;Humidity;BMP_temperature;BMP_pressure;BME280_temperature;BME280_humidity;BME280_pressure;Samples;Min_cycle;Max_cycle;Signal;HPM_P1;HPM_P2
2023/07/02 00:01:24;;;;;;;8.13;5.80;;;16.50;99.90;;;16.12;90.07;99918.78;5059404;28;20214;-77
2023/07/02 00:03:56;;;;;;;8.83;5.73;;;16.60;99.90;;;16.09;89.34;99925.47;5059376;28;20233;-77
2023/07/02 00:06:40;;;;;;;8.10;5.90;;;16.60;99.90;;;16.07;89.36;99924.00;5056700;28;20649;-77
2023/07/02 00:09:12;;;;;;;9.30;5.20;;;16.50;99.90;;;16.08;89.31;99925.66;5056278;28;20247;-77
2023/07/02 00:11:47;;;;;;;9.93;5.33;;;16.60;99.90;;;16.06;89.84;99916.97;5056217;28;20273;-77
2023/07/02 00:14:19;;;;;;;9.27;5.37;;;16.60;99.90;;;16.09;90.04;99919.22;5055780;28;20707;-77
2023/07/02 00:16:51;;;;;;;8.77;4.90;;;16.50;99.90;;;16.03;89.48;99917.38;5056178;28;20278;-77
2023/07/02 00:19:23;;;;;;;8.90;5.33;;;16.50;99.90;;;15.95;89.79;99913.06;5056080;28;20229;-77
2023/07/02 00:21:57;;;;;;;5.80;5.17;;;16.40;99.90;;;15.99;89.93;99911.56;5055943;28;20302;-77
2023/07/02 00:24:29;;;;;;;8.63;5.07;;;16.50;99.90;;;15.89;89.65;99905.81;5055856;28;20324;-77
2023/07/02 00:27:01;;;;;;;7.53;5.40;;;16.40;99.90;;;15.89;89.85;99905.00;5055920;28;20277;-77
2023/07/02 00:29:33;;;;;;;8.30;5.37;;;16.40;99.90;;;15.88;90.00;99911.44;5055873;28;20230;-77
2023/07/02 00:32:06;;;;;;;8.30;5.07;;;16.40;99.90;;;15.87;89.71;99907.91;5055747;28;20273;-77
2023/07/02 00:34:38;;;;;;;5.20;4.70;;;16.40;99.90;;;15.81;88.95;99905.22;5055448;28;20265;-77
2023/07/02 00:37:11;;;;;;;10.67;5.00;;;16.30;99.90;;;15.81;89.05;99913.31;5055723;28;20281;-77
2023/07/02 00:39:43;;;;;;;7.67;4.60;;;16.30;99.90;;;15.89;89.59;99915.78;5055711;28;20197;-77
2023/07/02 00:42:17;;;;;;;6.53;4.40;;;16.40;99.90;;;15.88;88.66;99914.97;5055279;28;20786;-77
2023/07/02 00:44:52;;;;;;;7.63;4.40;;;16.30;99.90;;;15.88;87.68;99911.44;5055297;28;20715;-77
2023/07/02 00:47:25;;;;;;;5.63;4.23;;;16.30;99.90;;;15.86;88.46;99911.63;5055597;28;20252;-77
2023/07/02 00:49:57;;;;;;;8.43;4.40;;;16.30;99.90;;;15.86;87.64;99921.59;5055488;28;20263;-77
2023/07/02 00:52:30;;;;;;;8.00;3.97;;;16.40;99.90;;;15.86;87.82;99924.28;5055166;28;20222;-77
2023/07/02 00:55:02;;;;;;;4.30;3.60;;;16.30;99.90;;;15.81;86.47;99921.44;5055061;28;20601;-77
2023/07/02 00:57:34;;;;;;;7.77;4.10;;;16.30;99.90;;;15.79;86.70;99923.53;5055358;28;20279;-77
2023/07/02 01:00:08;;;;;;;6.30;3.70;;;16.30;99.90;;;15.71;85.93;99911.91;5055370;28;20292;-77
2023/07/02 01:02:43;;;;;;;6.33;3.70;;;16.20;99.90;;;15.70;86.54;99912.97;5054873;28;20575;-77
2023/07/02 01:05:21;;;;;;;8.07;3.50;;;16.20;99.90;;;15.76;86.06;99916.66;5055166;28;20233;-77
2023/07/02 01:07:55;;;;;;;4.23;3.50;;;16.20;99.90;;;15.65;85.55;99915.44;5055219;28;20210;-77
2023/07/02 01:10:27;;;;;;;6.63;3.53;;;16.10;99.90;;;15.61;85.34;99916.94;5055086;28;20239;-77
2023/07/02 01:13:02;;;;;;;8.60;3.60;;;16.10;99.90;;;15.63;86.33;99922.09;5055291;28;20600;-77
2023/07/02 01:15:35;;;;;;;6.30;3.53;;;16.30;99.90;;;15.59;86.16;99921.72;5054931;28;20225;-77
2023/07/02 01:18:08;;;;;;;3.30;3.00;;;16.10;99.90;;;15.55;85.95;99915.06;5054267;28;20690;-77
2023/07/02 01:20:41;;;;;;;5.33;3.47;;;16.10;99.90;;;15.59;85.97;99916.31;5054643;28;20277;-77
2023/07/02 01:23:14;;;;;;;7.73;3.50;;;16.00;99.90;;;15.54;85.48;99908.03;5054483;28;20257;-77
2023/07/02 01:25:46;;;;;;;6.47;3.40;;;16.00;99.90;;;15.53;85.08;99906.38;5054712;28;20309;-77
2023/07/02 01:28:18;;;;;;;5.57;3.50;;;16.00;99.90;;;15.45;86.08;99903.88;5054752;28;20281;-77
2023/07/02 01:30:50;;;;;;;6.43;4.00;;;15.90;99.90;;;15.46;85.52;99904.69;5054655;28;20622;-77
2023/07/02 01:33:22;;;;;;;5.20;3.40;;;15.90;99.90;;;15.50;85.98;99895.19;5054655;28;20186;-77
2023/07/02 01:35:56;;;;;;;11.17;3.90;;;16.10;99.90;;;15.46;86.12;99910.94;5054533;28;20220;-77
2023/07/02 01:38:28;;;;;;;11.07;3.40;;;16.00;99.90;;;15.42;85.72;99903.47;5054283;28;20627;-77
2023/07/02 01:41:00;;;;;;;10.57;4.07;;;15.90;99.90;;;15.46;85.32;99902.84;5054534;28;20233;-77
2023/07/02 01:43:32;;;;;;;11.40;4.07;;;15.90;99.90;;;15.38;85.14;99911.16;5054539;28;20217;-77
2023/07/02 01:46:04;;;;;;;6.67;3.70;;;15.90;99.90;;;15.38;85.60;99908.44;5054459;28;20285;-77
2023/07/02 01:48:36;;;;;;;10.60;4.70;;;15.80;99.90;;;15.22;86.11;99908.91;5054420;28;20186;-77
2023/07/02 01:51:10;;;;;;;9.43;3.90;;;15.80;99.90;;;15.28;86.73;99908.06;5054035;28;20720;-77
2023/07/02 01:53:42;;;;;;;8.10;4.40;;;15.70;99.90;;;15.16;86.48;99915.16;5054289;28;20186;-77
2023/07/02 01:56:14;;;;;;;10.40;4.00;;;15.70;99.90;;;15.22;86.84;99915.13;5054359;28;20260;-76
2023/07/02 01:58:45;;;;;;;6.37;3.83;;;15.60;99.90;;;15.12;86.75;99916.59;5054163;28;20282;-77
2023/07/02 02:01:17;;;;;;;5.20;4.03;;;15.60;99.90;;;15.12;86.83;99924.69;5054157;28;20281;-77
2023/07/02 02:03:49;;;;;;;10.93;4.30;;;15.60;99.90;;;15.10;87.14;99921.38;5053739;28;20233;-76
2023/07/02 02:06:22;;;;;;;10.70;4.40;;;15.60;99.90;;;15.08;86.55;99926.13;5054089;28;20196;-77
2023/07/02 02:08:54;;;;;;;11.67;4.53;;;15.70;99.90;;;15.06;87.16;99933.63;5054271;28;20218;-77
2023/07/02 02:11:26;;;;;;;8.03;3.90;;;15.60;99.90;;;15.09;86.60;99931.34;5053987;28;20190;-77
2023/07/02 02:14:01;;;;;;;8.60;4.37;;;15.50;99.90;;;15.02;86.80;99930.50;5053639;28;20293;-77
2023/07/02 02:16:33;;;;;;;8.37;4.00;;;15.50;99.90;;;15.12;86.21;99930.09;5053980;28;20194;-77
2023/07/02 02:19:05;;;;;;;9.53;4.40;;;15.60;99.90;;;15.12;86.36;99930.09;5053881;28;20220;-76
2023/07/02 02:21:39;;;;;;;9.03;4.37;;;15.60;99.90;;;15.09;86.74;99930.50;5053738;28;20243;-76
2023/07/02 02:24:11;;;;;;;7.70;4.77;;;15.60;99.90;;;15.05;86.61;99930.09;5054071;28;20317;-77
2023/07/02 02:26:42;;;;;;;8.03;4.67;;;15.60;99.90;;;15.05;86.38;99938.19;5053754;28;20269;-77
2023/07/02 02:29:14;;;;;;;6.20;4.50;;;15.70;99.90;;;15.01;87.13;99934.22;5052968;28;20246;-77
2023/07/02 02:31:47;;;;;;;10.40;4.60;;;15.70;99.90;;;15.01;86.49;99938.78;5053908;28;20197;-76
2023/07/02 02:34:19;;;;;;;11.93;5.07;;;15.50;99.90;;;15.08;86.55;99934.22;5053411;28;20265;-77
2023/07/02 02:36:55;;;;;;;6.37;4.40;;;15.60;99.90;;;15.06;86.91;99936.31;5053625;28;20218;-76
2023/07/02 02:39:26;;;;;;;5.50;4.70;;;15.70;99.90;;;15.04;87.73;99935.69;5053556;28;20224;-76
2023/07/02 02:41:58;;;;;;;6.83;5.20;;;15.50;99.90;;;14.97;87.39;99932.16;5053154;28;20604;-76
2023/07/02 02:44:32;;;;;;;7.83;5.10;;;15.50;99.90;;;14.96;88.03;99934.03;5053476;28;20794;-76
2023/07/02 02:47:05;;;;;;;6.40;4.90;;;15.70;99.90;;;15.01;88.04;99930.69;5053585;28;20229;-76
2023/07/02 02:49:40;;;;;;;10.97;5.23;;;15.50;99.90;;;15.04;88.17;99935.69;5053241;28;20638;-76
2023/07/02 02:52:14;;;;;;;7.77;5.20;;;15.60;99.90;;;15.06;87.51;99925.53;5053571;28;20273;-76
2023/07/02 02:54:46;;;;;;;6.90;5.30;;;15.60;99.90;;;15.07;87.77;99933.38;5053378;28;20311;-76
2023/07/02 02:57:18;;;;;;;9.07;5.13;;;15.60;99.90;;;15.08;88.11;99928.84;5053544;28;20196;-76
2023/07/02 02:59:50;;;;;;;10.77;6.30;;;15.60;99.90;;;15.08;88.36;99932.38;5053174;28;20205;-76
2023/07/02 03:02:22;;;;;;;7.83;5.83;;;15.60;99.90;;;15.03;89.08;99934.03;5053323;28;20252;-76
2023/07/02 03:04:54;;;;;;;8.47;6.50;;;15.50;99.90;;;15.01;88.93;99930.69;5053309;28;20275;-76
2023/07/02 03:07:27;;;;;;;9.67;6.40;;;15.50;99.90;;;14.98;88.83;99929.25;5053336;28;20687;-76
2023/07/02 03:09:59;;;;;;;9.27;6.80;;;15.50;99.90;;;14.99;89.39;99919.31;5053268;28;20221;-76
2023/07/02 03:12:32;;;;;;;9.00;6.17;;;15.50;99.90;;;14.99;88.85;99924.72;5053360;28;20190;-76
2023/07/02 03:15:03;;;;;;;9.23;6.07;;;15.70;99.90;;;15.02;88.88;99924.28;5052816;28;20321;-76
2023/07/02 03:17:35;;;;;;;7.63;5.70;;;15.50;99.90;;;14.97;88.70;99921.38;5053332;28;20289;-76
2023/07/02 03:20:09;;;;;;;11.33;6.20;;;15.60;99.90;;;15.00;89.05;99923.69;5053161;28;20190;-76
2023/07/02 03:22:42;;;;;;;12.43;6.07;;;15.50;99.90;;;15.03;88.84;99931.34;5053172;28;20210;-76
2023/07/02 03:25:14;;;;;;;7.47;6.27;;;15.60;99.90;;;15.02;88.96;99933.19;5053073;28;20628;-76
2023/07/02 03:27:46;;;;;;;8.20;6.40;;;15.50;99.90;;;15.01;88.94;99934.22;5052938;28;20832;-76
2023/07/02 03:30:18;;;;;;;8.80;6.33;;;15.60;99.90;;;14.98;89.27;99933.81;5052776;28;20643;-76
2023/07/02 03:32:50;;;;;;;8.80;6.60;;;15.50;99.90;;;15.00;89.41;99929.06;5053131;28;20222;-76
2023/07/02 03:35:22;;;;;;;10.13;6.70;;;15.70;99.90;;;14.97;89.23;99927.59;5052561;28;20729;-76
2023/07/02 03:37:57;;;;;;;7.40;6.47;;;15.50;99.90;;;14.99;89.64;99936.31;5053085;28;20187;-76
2023/07/02 03:40:29;;;;;;;7.60;6.43;;;15.50;99.90;;;14.95;90.30;99936.94;5053455;28;20284;-76
2023/07/02 03:43:01;;;;;;;12.90;7.27;;;15.50;99.90;;;14.90;90.23;99934.84;5056718;28;20301;-76
2023/07/02 03:45:32;;;;;;;10.87;6.93;;;15.50;99.90;;;14.97;90.56;99932.16;5056763;28;20247;-76
2023/07/02 03:48:04;;;;;;;7.87;6.30;;;15.50;99.90;;;14.99;90.06;99930.94;5056926;28;20241;-76
2023/07/02 03:50:36;;;;;;;10.77;6.50;;;15.50;99.90;;;15.04;90.28;99932.97;5056838;28;20205;-76
2023/07/02 03:53:09;;;;;;;7.67;6.17;;;15.60;99.90;;;15.02;90.27;99929.69;5056603;28;20193;-76
2023/07/02 03:55:41;;;;;;;13.30;7.00;;;15.60;99.90;;;14.98;90.27;99929.25;5056479;28;20260;-76
2023/07/02 03:58:13;;;;;;;9.77;6.80;;;15.50;99.90;;;14.97;89.97;99927.59;5056581;28;20285;-76
2023/07/02 04:00:45;;;;;;;11.27;6.60;;;15.70;99.90;;;15.00;90.06;99926.38;5056564;28;20285;-76
2023/07/02 04:03:17;;;;;;;10.73;6.30;;;15.50;99.90;;;15.04;89.92;99938.38;5056238;28;20214;-76
2023/07/02 04:05:49;;;;;;;10.13;6.63;;;15.60;99.90;;;15.02;90.61;99937.75;5056347;28;20226;-76
2023/07/02 04:08:24;;;;;;;8.00;7.20;;;15.50;99.90;;;15.04;90.41;99932.97;5056283;28;20230;-76
2023/07/02 04:10:56;;;;;;;8.57;6.77;;;15.60;99.90;;;15.04;90.10;99933.81;5056282;28;20230;-76
2023/07/02 04:13:29;;;;;;;9.17;7.53;;;15.70;99.90;;;15.03;90.52;99942.13;5056068;28;20197;-76
2023/07/02 04:16:01;;;;;;;10.33;6.90;;;15.60;99.90;;;15.03;90.59;99958.31;5056148;28;20244;-76
2023/07/02 04:18:32;;;;;;;8.43;6.77;;;15.60;99.90;;;15.04;90.51;99965.31;5056196;28;20281;-76
2023/07/02 04:21:04;;;;;;;10.50;7.20;;;15.60;99.90;;;15.04;90.75;99958.06;5056098;28;20225;-76
2023/07/02 04:23:38;;;;;;;9.13;6.90;;;15.60;99.90;;;15.03;90.88;99969.09;5056446;28;20659;-76
2023/07/02 04:26:10;;;;;;;9.50;7.13;;;15.60;99.90;;;15.02;90.34;99962.84;5055751;28;20663;-76
2023/07/02 04:29:02;;;;;;;11.57;7.30;;;15.60;99.90;;;15.02;90.50;99960.16;5056194;28;20210;-76
2023/07/02 04:31:34;;;;;;;14.33;6.93;;;15.60;99.90;;;15.05;90.80;99959.75;5055972;28;20194;-76
2023/07/02 04:34:06;;;;;;;10.07;7.30;;;15.60;99.90;;;15.09;91.03;99952.91;5055737;28;20279;-76
2023/07/02 04:36:38;;;;;;;8.60;6.70;;;15.70;99.90;;;15.12;91.48;99952.47;5055820;28;20614;-76
2023/07/02 04:39:13;;;;;;;10.13;7.00;;;15.60;99.90;;;15.12;90.56;99954.34;5055780;28;20244;-76
2023/07/02 04:41:46;;;;;;;12.17;7.47;;;15.70;99.90;;;15.08;91.23;99956.63;5055786;28;20285;-76
2023/07/02 04:44:17;;;;;;;11.40;7.97;;;15.60;99.90;;;15.10;90.71;99951.03;5055494;28;20295;-76
2023/07/02 04:46:50;;;;;;;11.90;7.87;;;15.70;99.90;;;15.11;91.29;99958.06;5055449;28;20674;-76
2023/07/02 04:49:22;;;;;;;10.60;8.30;;;15.70;99.90;;;15.10;91.45;99959.13;5055394;28;20640;-76
2023/07/02 04:51:54;;;;;;;10.87;8.03;;;15.70;99.90;;;15.13;92.17;99948.75;5054941;28;20640;-76
2023/07/02 04:54:27;;;;;;;11.90;7.67;;;15.70;99.90;;;15.11;91.00;99963.47;5055070;28;20234;-62
2023/07/02 04:56:59;;;;;;;9.80;7.43;;;15.70;99.90;;;15.10;90.30;99969.91;5055292;28;20220;-74
2023/07/02 04:59:31;;;;;;;12.57;7.90;;;15.70;99.90;;;15.13;90.26;99964.09;5055279;28;20281;-74
2023/07/02 05:02:03;;;;;;;8.93;7.20;;;15.70;99.90;;;15.12;90.08;99962.44;5055224;28;20236;-74
2023/07/02 05:04:37;;;;;;;9.13;6.80;;;15.80;99.90;;;15.06;89.28;99969.50;5054717;28;20734;-74
2023/07/02 05:07:08;;;;;;;12.37;7.17;;;15.70;99.90;;;15.12;89.00;99973.22;5055157;28;20196;-74
2023/07/02 05:09:42;;;;;;;9.17;6.87;;;15.70;99.90;;;15.13;88.64;99978.41;5055100;28;20281;-74
2023/07/02 05:12:14;;;;;;;12.77;6.50;;;15.90;99.90;;;15.04;85.13;99960.78;5055052;28;20562;-74
2023/07/02 05:14:46;;;;;;;11.40;6.63;;;15.70;99.90;;;15.08;86.00;99966.56;5054604;28;20704;-74
2023/07/02 05:17:18;;;;;;;10.60;6.27;;;15.80;99.90;;;15.09;85.26;99974.47;5054890;28;20201;-74
2023/07/02 05:19:50;;;;;;;12.73;7.07;;;15.70;99.90;;;15.11;84.28;99982.34;5054895;28;20248;-74
2023/07/02 05:22:21;;;;;;;12.17;6.73;;;15.70;99.90;;;15.11;83.63;99976.94;5054819;28;20257;-74
2023/07/02 05:24:55;;;;;;;13.73;6.83;;;15.70;99.90;;;15.07;82.23;99976.53;5054653;28;20333;-74
2023/07/02 05:27:27;;;;;;;13.07;6.33;;;15.70;99.90;;;15.11;83.05;99972.38;5054713;28;20277;-74
2023/07/02 05:29:58;;;;;;;12.40;6.93;;;15.70;99.90;;;15.10;82.77;99975.31;5055461;28;20269;-74
2023/07/02 05:32:30;;;;;;;11.90;6.63;;;15.70;99.90;;;15.10;83.39;99978.00;5054936;28;20273;-74
2023/07/02 05:35:02;;;;;;;12.70;6.40;;;15.80;99.90;;;15.09;84.27;99985.25;5054256;28;20232;-74
2023/07/02 05:37:34;;;;;;;9.63;6.20;;;15.70;99.90;;;15.10;84.37;99980.69;5054532;28;20228;-74
2023/07/02 05:40:09;;;;;;;10.43;6.90;;;15.80;99.90;;;15.10;84.66;99986.09;5054511;28;20191;-74
2023/07/02 05:42:42;;;;;;;13.03;7.27;;;15.60;99.90;;;15.06;85.34;99995.63;5054128;28;20186;-74
2023/07/02 05:45:15;;;;;;;12.30;6.73;;;15.60;99.90;;;15.01;86.19;99990.00;5053882;28;20230;-74
2023/07/02 05:47:46;;;;;;;11.13;6.53;;;15.60;99.90;;;15.01;86.08;99981.91;5054362;28;20229;-74
2023/07/02 05:50:19;;;;;;;14.93;6.97;;;15.60;99.90;;;15.04;85.77;99997.69;5054302;28;20195;-74
2023/07/02 05:52:50;;;;;;;9.83;6.80;;;15.60;99.90;;;15.05;85.22;99996.66;5054915;28;20213;-74
2023/07/02 05:55:23;;;;;;;12.87;6.37;;;15.60;99.90;;;15.10;85.50;99996.88;5054054;28;20253;-74
2023/07/02 05:57:57;;;;;;;9.90;7.23;;;15.70;99.90;;;15.12;84.86;99994.78;5053853;28;20603;-74
2023/07/02 06:00:29;;;;;;;11.17;7.63;;;15.70;99.90;;;15.14;84.76;100003.47;5054057;28;20241;-74
2023/07/02 06:03:01;;;;;;;11.07;6.13;;;15.70;99.90;;;15.13;84.33;100010.78;5054082;28;20613;-74
2023/07/02 06:05:33;;;;;;;13.47;7.03;;;15.80;99.90;;;15.16;84.16;100004.13;5052902;28;20253;-74
2023/07/02 06:08:05;;;;;;;11.27;7.27;;;15.90;99.90;;;15.10;84.85;100007.66;5054004;28;20194;-74
2023/07/02 06:10:39;;;;;;;14.67;7.63;;;15.70;99.90;;;15.06;84.94;100017.19;5053907;28;20187;-74
2023/07/02 06:13:10;;;;;;;12.57;7.43;;;15.60;99.90;;;15.12;85.83;100019.03;5054154;28;20281;-74
2023/07/02 06:15:43;;;;;;;15.37;7.73;;;15.80;99.90;;;15.13;84.84;100018.03;5053752;28;20329;-74
2023/07/02 06:18:15;;;;;;;15.00;8.30;;;15.70;99.90;;;15.15;84.44;100013.25;5053486;28;20707;-74
2023/07/02 06:20:47;;;;;;;13.70;8.13;;;15.70;99.90;;;15.21;84.71;100020.50;5053506;28;20597;-74
2023/07/02 06:23:20;;;;;;;13.90;7.57;;;15.80;99.90;;;15.24;84.62;100009.28;5053876;28;20196;-75
2023/07/02 06:25:58;;;;;;;14.97;7.60;;;15.80;99.90;;;15.34;85.14;100015.13;5053635;28;20770;-75
2023/07/02 06:28:31;;;;;;;16.27;7.63;;;15.90;99.90;;;15.46;84.28;100005.34;5053731;28;20617;-74
2023/07/02 06:31:07;;;;;;;13.63;7.47;;;16.20;99.90;;;15.55;82.84;100006.81;5053690;28;20275;-74
2023/07/02 06:34:08;;;;;;;14.23;6.83;;;16.20;99.90;;;15.64;80.87;100010.97;5053755;28;20190;-74
2023/07/02 06:36:40;;;;;;;16.07;7.03;;;16.30;99.90;;;15.75;78.87;100005.94;5053587;28;20206;-74
2023/07/02 06:39:12;;;;;;;16.83;7.20;;;16.40;99.90;;;15.81;79.16;100015.88;5053528;28;20191;-74
2023/07/02 06:41:46;;;;;;;15.83;6.17;;;16.40;99.90;;;15.88;78.63;100017.53;5053312;28;20716;-74
2023/07/02 06:44:21;;;;;;;18.60;7.87;;;16.50;99.90;;;15.93;75.23;100009.63;5053323;28;20230;-75
2023/07/02 06:46:52;;;;;;;22.70;7.37;;;16.60;99.90;;;16.01;74.40;100022.06;5053361;28;20296;-75
2023/07/02 06:49:26;;;;;;;18.67;7.43;;;16.60;99.90;;;16.05;76.18;100023.28;5053407;28;20205;-75
2023/07/02 06:52:00;;;;;;;18.30;8.07;;;16.70;99.90;;;16.10;73.78;100023.47;5053356;28;20308;-75
2023/07/02 06:54:32;;;;;;;18.43;7.47;;;16.70;99.90;;;16.19;73.63;100041.13;5053203;28;20646;-75
2023/07/02 06:57:05;;;;;;;18.37;7.70;;;16.80;99.90;;;16.24;70.40;100034.03;5053313;28;20226;-75
2023/07/02 06:59:37;;;;;;;15.50;7.27;;;16.90;99.90;;;16.30;70.54;100037.72;5054071;28;20285;-75
2023/07/02 07:02:08;;;;;;;13.67;6.80;;;16.90;99.90;;;16.32;71.08;100030.25;5053255;28;20226;-75
2023/07/02 07:04:40;;;;;;;20.60;7.83;;;16.90;99.90;;;16.34;73.46;100041.66;5053100;28;20245;-75
2023/07/02 07:07:12;;;;;;;19.87;7.37;;;16.90;99.90;;;16.45;68.89;100040.16;5053216;28;20213;-75
2023/07/02 07:09:44;;;;;;;15.67;7.17;;;17.00;99.90;;;16.49;66.94;100047.63;5053219;28;20194;-75
2023/07/02 07:12:17;;;;;;;19.50;7.53;;;17.10;99.90;;;16.50;67.40;100049.28;5053312;28;20590;-74
2023/07/02 07:14:49;;;;;;;17.80;6.73;;;17.20;99.90;;;16.58;63.74;100042.81;5053013;28;20773;-74
2023/07/02 07:17:21;;;;;;;16.73;6.73;;;17.20;98.70;;;16.61;65.43;100043.22;5056931;28;20196;-74
2023/07/02 07:19:52;;;;;;;14.37;6.73;;;17.30;98.80;;;16.67;65.54;100041.53;5057147;28;20194;-74
2023/07/02 07:22:24;;;;;;;19.10;7.60;;;17.20;99.00;;;16.71;65.67;100056.28;5056668;28;20634;-74
2023/07/02 07:24:56;;;;;;;16.50;8.10;;;17.30;99.30;;;16.67;65.16;100050.50;5056922;28;20329;-75
2023/07/02 07:27:29;;;;;;;19.03;7.30;;;17.30;98.70;;;16.64;65.47;100056.28;5056721;28;20281;-75
2023/07/02 07:30:01;;;;;;;16.80;7.60;;;17.30;98.80;;;16.60;66.48;100051.56;5056628;28;20187;-74
2023/07/02 07:32:33;;;;;;;18.70;7.57;;;17.20;99.20;;;16.60;67.18;100070.47;5056932;28;20269;-75
2023/07/02 07:35:05;;;;;;;14.27;7.10;;;17.20;99.60;;;16.68;66.94;100067.50;5056538;28;20244;-75
2023/07/02 07:37:37;;;;;;;17.07;7.53;;;17.30;99.80;;;16.71;65.53;100062.50;5057074;28;20281;-75
2023/07/02 07:40:09;;;;;;;14.93;7.50;;;17.30;98.70;;;16.67;65.72;100063.16;5056814;28;20285;-75
2023/07/02 07:42:43;;;;;;;16.83;7.80;;;17.20;98.60;;;16.63;66.03;100060.06;5056435;28;20728;-75
2023/07/02 07:45:15;;;;;;;14.30;7.07;;;17.20;98.90;;;16.68;68.35;100062.94;5056544;28;20234;-74
2023/07/02 07:47:47;;;;;;;12.13;6.87;;;17.30;99.90;;;16.78;68.30;100067.88;5056311;28;20571;-75
2023/07/02 07:50:18;;;;;;;14.23;7.10;;;17.30;99.80;;;16.92;65.67;100072.16;5056295;28;20566;-75
2023/07/02 07:52:51;;;;;;;16.27;7.33;;;17.50;99.00;;;16.97;64.06;100077.75;5056503;28;20285;-75
2023/07/02 07:55:22;;;;;;;14.90;7.20;;;17.50;98.50;;;16.97;64.77;100068.81;5056373;28;20230;-75
2023/07/02 07:57:56;;;;;;;15.30;7.47;;;17.60;97.90;;;17.06;63.93;100071.03;5056147;28;20644;-75
2023/07/02 08:00:28;;;;;;;19.30;7.60;;;17.70;97.70;;;17.10;63.89;100076.81;5056412;28;20233;-75
2023/07/02 08:03:01;;;;;;;17.03;7.83;;;17.60;97.80;;;17.14;61.14;100089.72;5055956;28;20641;-75
2023/07/02 08:05:34;;;;;;;19.50;8.13;;;17.70;96.40;;;17.19;61.04;100080.94;5056200;28;20237;-73
2023/07/02 08:08:08;;;;;;;15.93;7.33;;;17.70;96.30;;;17.24;64.40;100091.91;5056306;28;20277;-73
2023/07/02 08:10:39;;;;;;;18.20;8.20;;;17.80;97.90;;;17.26;64.09;100089.81;5056201;28;20222;-73
2023/07/02 08:13:14;;;;;;;19.77;7.83;;;17.90;97.90;;;17.32;62.54;100096.25;5055869;28;20190;-74
2023/07/02 08:15:46;;;;;;;17.77;8.20;;;17.90;96.90;;;17.33;62.05;100106.81;5055781;28;20647;-74
2023/07/02 08:18:18;;;;;;;19.50;8.43;;;18.00;96.30;;;17.41;60.42;100098.44;5056118;28;20222;-73
2023/07/02 08:20:52;;;;;;;16.30;7.60;;;18.10;95.40;;;17.48;59.78;100101.94;5056408;28;20202;-73
2023/07/02 08:23:24;;;;;;;17.33;7.90;;;18.10;95.10;;;17.50;58.20;100101.72;5056007;28;20285;-73
2023/07/02 08:25:57;;;;;;;17.60;7.70;;;18.10;94.30;;;17.43;59.62;100098.25;5055928;28;20211;-73
2023/07/02 08:28:30;;;;;;;16.80;7.87;;;18.00;95.00;;;17.31;59.05;100105.41;5054804;28;20191;-74
2023/07/02 08:31:02;;;;;;;15.20;7.97;;;17.90;95.00;;;17.28;60.65;100109.38;5055562;28;20281;-74
2023/07/02 08:33:35;;;;;;;17.03;8.63;;;17.90;95.40;;;17.26;61.09;100113.34;5056011;28;20237;-73
2023/07/02 08:36:07;;;;;;;21.70;8.20;;;17.80;96.20;;;17.27;61.78;100115.00;5055818;28;20589;-73
2023/07/02 08:38:43;;;;;;;15.70;8.03;;;17.80;96.00;;;17.35;59.98;100112.88;5055448;28;20675;-73
2023/07/02 08:41:15;;;;;;;21.93;7.87;;;17.90;95.40;;;17.44;59.60;100119.66;5055706;28;20248;-74
2023/07/02 08:43:49;;;;;;;14.47;8.23;;;18.00;95.20;;;17.58;57.51;100123.94;5055622;28;20190;-74
2023/07/02 08:46:22;;;;;;;17.97;7.27;;;18.20;94.50;;;17.74;56.91;100126.09;5055497;28;20242;-74
2023/07/02 08:48:54;;;;;;;20.43;8.57;;;18.30;94.00;;;17.85;57.00;100131.84;5055486;28;20194;-74
2023/07/02 08:51:27;;;;;;;16.60;7.60;;;18.50;93.20;;;17.93;56.94;100121.56;5055526;28;20286;-74
2023/07/02 08:53:59;;;;;;;17.67;7.67;;;18.50;93.20;;;17.98;56.91;100127.13;5055402;28;20230;-74
2023/07/02 08:56:31;;;;;;;18.13;7.87;;;18.50;93.40;;;18.06;57.36;100126.03;5055036;28;20605;-74
2023/07/02 08:59:06;;;;;;;18.10;8.80;;;18.70;93.50;;;18.15;55.60;100140.94;5055345;28;20195;-73
2023/07/02 09:01:51;;;;;;;17.90;8.53;;;18.80;93.00;;;18.05;52.11;100148.72;5055014;28;20561;-73
2023/07/02 09:04:28;;;;;;;15.83;8.00;;;18.70;90.80;;;18.08;53.51;100145.59;5054865;28;20773;-74
2023/07/02 09:07:11;;;;;;;14.03;7.73;;;18.60;91.20;;;18.15;52.13;100146.38;5054837;28;20250;-73
2023/07/02 09:09:53;;;;;;;15.17;8.07;;;18.70;90.50;;;18.27;52.01;100138.31;5055129;28;20222;-73
2023/07/02 09:12:34;;;;;;;17.73;7.87;;;18.80;90.10;;;18.37;52.03;100147.56;5055118;28;20195;-73
2023/07/02 09:15:09;;;;;;;13.27;7.53;;;19.00;89.60;;;18.31;47.94;100140.34;5054654;28;20727;-73
2023/07/02 09:17:42;;;;;;;17.10;7.90;;;18.90;84.30;;;18.22;49.51;100152.53;5054644;28;20854;-73
2023/07/02 09:20:15;;;;;;;13.70;7.67;;;18.80;86.60;;;18.23;51.74;100146.06;5054964;28;20187;-74
2023/07/02 09:22:58;;;;;;;16.20;8.33;;;18.80;89.40;;;18.18;49.46;100148.63;5054928;28;20190;-74
2023/07/02 09:25:40;;;;;;;17.13;8.13;;;18.70;86.30;;;18.16;50.50;100150.72;5054435;28;20806;-74
2023/07/02 09:28:24;;;;;;;17.73;7.70;;;18.70;87.10;;;18.14;51.73;100155.53;5054516;28;20714;-75
2023/07/02 09:30:59;;;;;;;15.90;7.70;;;18.70;89.00;;;18.14;51.70;100156.38;5054713;28;20190;-74
2023/07/02 09:33:33;;;;;;;15.17;7.77;;;18.70;89.30;;;18.20;51.81;100144.63;5054576;28;20194;-74
2023/07/02 09:36:05;;;;;;;14.57;7.83;;;18.80;89.30;;;18.45;51.90;100144.56;5054649;28;20610;-74
2023/07/02 09:38:38;;;;;;;17.67;8.13;;;19.00;89.30;;;18.48;49.82;100140.59;5054350;28;20244;-74
2023/07/02 09:41:10;;;;;;;18.40;7.70;;;19.00;85.70;;;18.41;49.62;100145.25;5054511;28;20244;-74
2023/07/02 09:43:42;;;;;;;15.73;7.13;;;19.00;86.00;;;18.34;50.51;100145.31;5054089;28;20285;-74
2023/07/02 09:46:15;;;;;;;12.97;7.47;;;18.80;86.70;;;18.25;51.78;100154.81;5054080;28;20576;-74
2023/07/02 09:48:48;;;;;;;13.70;7.50;;;18.80;88.30;;;18.17;51.72;100164.06;5054658;28;20233;-74
2023/07/02 09:51:24;;;;;;;16.80;8.10;;;18.70;88.10;;;18.13;51.13;100160.13;5054343;28;20281;-75
2023/07/02 09:53:56;;;;;;;16.30;8.50;;;18.70;87.40;;;18.13;51.99;100162.00;5053960;28;20799;-74
2023/07/02 09:56:28;;;;;;;13.67;7.80;;;18.60;88.60;;;18.28;53.24;100151.66;5054325;28;20218;-74
2023/07/02 09:59:00;;;;;;;15.03;7.83;;;18.80;90.20;;;18.46;51.86;100156.25;5054028;28;20197;-73
2023/07/02 10:01:33;;;;;;;21.30;8.63;;;19.00;88.70;;;18.51;49.68;100161.84;5054910;28;20221;-73
2023/07/02 10:04:15;;;;;;;15.93;7.73;;;19.10;85.90;;;18.60;49.34;100161.31;5054857;28;20574;-74
2023/07/02 10:06:52;;;;;;;14.57;7.77;;;19.10;85.20;;;18.59;49.77;100164.25;5054825;28;20213;-74
2023/07/02 10:09:36;;;;;;;17.33;8.67;;;19.10;85.00;;;18.52;48.99;100164.34;5054518;28;20229;-73
2023/07/02 10:12:17;;;;;;;17.47;7.93;;;19.00;83.60;;;18.59;50.14;100166.97;5054526;28;20315;-73
2023/07/02 10:14:52;;;;;;;20.20;8.13;;;19.10;85.20;;;18.63;50.13;100179.03;5053924;28;20268;-74
2023/07/02 10:17:34;;;;;;;16.20;8.63;;;19.20;85.10;;;18.64;49.96;100167.94;5053824;28;20328;-74
2023/07/02 10:20:10;;;;;;;15.93;8.10;;;19.20;85.40;;;18.70;49.53;100167.03;5054022;28;20190;-74
2023/07/02 10:22:52;;;;;;;14.40;7.80;;;19.20;84.70;;;18.68;50.58;100171.03;5053877;28;20205;-74
2023/07/02 10:25:34;;;;;;;14.63;7.47;;;19.20;86.30;;;18.64;50.86;100173.38;5053694;28;20308;-74
2023/07/02 10:28:17;;;;;;;16.37;7.67;;;19.20;85.50;;;18.56;48.38;100192.63;5053697;28;20608;-74
2023/07/02 10:30:49;;;;;;;18.13;8.53;;;19.10;83.50;;;18.51;48.33;100187.06;5053686;28;20273;-75
2023/07/02 10:33:24;;;;;;;13.83;8.07;;;19.00;82.70;;;18.66;48.29;100187.50;5053642;28;20201;-75
2023/07/02 10:35:55;;;;;;;15.33;8.23;;;19.10;83.00;;;18.81;48.42;100189.00;5053266;28;20214;-74
2023/07/02 10:38:28;;;;;;;14.30;7.73;;;19.30;82.70;;;18.98;47.38;100192.78;5053611;28;20190;-74